Time;durP1;ratioP1;P1;durP2;ratioP2;P2;SDS_P1;SDS_P2;PMS_P1;PMS_P2;Temp;Humidity;BMP_temperature;BMP_pressure;BME280_temperature;BME280_humidity;BME280_pressure;Samples;Min_cycle;Max_cycle;Signal;HPM_P1;HPM_P2
2021/06/30 00:00:43;;;;;;;18.08;6.70;;;14.30;99.90;;;;;;5072365;28;20024;-61
2021/06/30 00:03:09;;;;;;;14.40;6.95;;;14.30;99.90;;;;;;5082455;28;20062;-62
2021/06/30 00:05:35;;;;;;;17.65;7.65;;;14.30;99.90;;;;;;5081061;28;20087;-62
2021/06/30 00:08:01;;;;;;;14.93;6.63;;;14.40;99.90;;;;;;5080516;28;20028;-60
2021/06/30 00:10:26;;;;;;;14.27;6.57;;;14.40;99.90;;;;;;5074051;28;20115;-61
2021/06/30 00:12:52;;;;;;;16.85;7.40;;;14.40;99.90;;;;;;5076582;28;20135;-61
2021/06/30 00:15:24;;;;;;;12.15;6.43;;;14.40;99.90;;;;;;5080933;28;20023;-60
2021/06/30 00:17:50;;;;;;;19.02;6.97;;;14.40;99.90;;;;;;5071632;28;20470;-63
2021/06/30 00:20:16;;;;;;;13.00;6.65;;;14.40;99.90;;;;;;5079998;28;20032;-61
2021/06/30 00:22:42;;;;;;;12.57;7.20;;;14.40;99.90;;;;;;5073272;28;20029;-62
2021/06/30 00:25:10;;;;;;;13.85;6.80;;;14.50;99.90;;;;;;5072063;28;20080;-60
2021/06/30 00:27:35;;;;;;;14.93;7.28;;;14.50;99.90;;;;;;5073179;28;20131;-61
2021/06/30 00:30:02;;;;;;;16.63;7.38;;;14.40;99.90;;;;;;5080926;28;20550;-60
2021/06/30 00:32:27;;;;;;;14.93;7.00;;;14.50;99.90;;;;;;5071986;28;20044;-60
2021/06/30 00:34:53;;;;;;;14.77;7.22;;;14.50;99.90;;;;;;5083898;28;20066;-60
2021/06/30 00:37:20;;;;;;;15.23;7.30;;;14.50;99.90;;;;;;5072675;28;20032;-61
2021/06/30 00:39:45;;;;;;;13.48;6.65;;;14.50;99.90;;;;;;5069833;28;20389;-61
2021/06/30 00:42:11;;;;;;;11.95;6.32;;;14.40;99.90;;;;;;5071642;28;20036;-62
2021/06/30 00:44:41;;;;;;;17.58;7.25;;;14.40;99.90;;;;;;5084684;28;20040;-61
2021/06/30 00:47:07;;;;;;;17.17;7.05;;;14.30;99.90;;;;;;5073500;28;20466;-62
2021/06/30 00:49:33;;;;;;;14.60;6.68;;;14.30;99.90;;;;;;5071049;28;20036;-60
2021/06/30 00:51:59;;;;;;;15.02;6.50;;;14.30;99.90;;;;;;5071092;28;20078;-62
2021/06/30 00:54:24;;;;;;;12.45;6.45;;;14.30;99.90;;;;;;5075181;28;20029;-61
2021/06/30 00:56:50;;;;;;;11.32;6.65;;;14.30;99.90;;;;;;5071767;28;20067;-63
2021/06/30 00:59:17;;;;;;;10.10;6.47;;;14.20;99.90;;;;;;5070783;28;20093;-62
2021/06/30 01:01:42;;;;;;;13.75;6.50;;;14.20;99.90;;;;;;5071384;28;20104;-63
2021/06/30 01:04:09;;;;;;;10.60;5.85;;;14.20;99.90;;;;;;5072697;28;20103;-61
2021/06/30 01:06:35;;;;;;;10.82;6.35;;;14.10;99.90;;;;;;5071211;28;20103;-61
2021/06/30 01:09:03;;;;;;;15.70;6.03;;;14.10;99.90;;;;;;5072265;28;20123;-61
2021/06/30 01:11:30;;;;;;;10.50;6.35;;;14.00;99.90;;;;;;5074082;28;20036;-62
2021/06/30 01:13:56;;;;;;;24.08;6.65;;;14.00;99.90;;;;;;5071383;28;20459;-62
2021/06/30 01:16:22;;;;;;;9.60;5.80;;;13.90;99.90;;;;;;5069237;28;20021;-61
2021/06/30 01:18:48;;;;;;;11.15;5.72;;;13.80;99.90;;;;;;5074200;28;20081;-62
2021/06/30 01:21:15;;;;;;;11.15;5.38;;;13.90;99.90;;;;;;5070317;28;20028;-61
2021/06/30 01:23:43;;;;;;;12.82;5.47;;;13.80;99.90;;;;;;5070675;28;20100;-61
2021/06/30 01:26:10;;;;;;;11.05;5.07;;;13.80;99.90;;;;;;5069015;28;20064;-60
2021/06/30 01:28:36;;;;;;;9.45;5.10;;;13.80;99.90;;;;;;5072378;28;20049;-61
2021/06/30 01:31:03;;;;;;;16.88;5.28;;;13.70;99.90;;;;;;5077479;28;20024;-61
2021/06/30 01:33:29;;;;;;;9.02;5.03;;;13.70;99.90;;;;;;5070927;28;20040;-60
2021/06/30 01:35:55;;;;;;;8.27;5.47;;;13.60;99.90;;;;;;5073331;28;20028;-61
2021/06/30 01:38:26;;;;;;;12.27;5.07;;;13.60;99.90;;;;;;5087139;28;20024;-61
2021/06/30 01:40:54;;;;;;;12.68;5.30;;;13.50;99.90;;;;;;5073630;28;20046;-61
2021/06/30 01:43:21;;;;;;;11.73;5.03;;;13.60;99.90;;;;;;5074325;28;20060;-59
2021/06/30 01:45:50;;;;;;;8.02;5.32;;;13.60;99.90;;;;;;5085593;28;20028;-61
2021/06/30 01:48:16;;;;;;;9.30;5.40;;;13.60;99.90;;;;;;5082111;28;20059;-60
2021/06/30 01:50:42;;;;;;;11.70;5.40;;;13.60;99.90;;;;;;5069198;28;20176;-60
2021/06/30 01:53:08;;;;;;;8.65;5.03;;;13.60;99.90;;;;;;5073355;28;20111;-60
2021/06/30 01:55:35;;;;;;;10.02;5.78;;;13.60;99.90;;;;;;5069840;28;20029;-60
2021/06/30 01:58:01;;;;;;;11.05;6.40;;;13.60;99.90;;;;;;5071826;28;20104;-61
2021/06/30 02:00:27;;;;;;;13.88;5.60;;;13.50;99.90;;;;;;5071886;28;20119;-61
2021/06/30 02:02:52;;;;;;;11.43;6.30;;;13.60;99.90;;;;;;5071212;28;20036;-61
2021/06/30 02:05:20;;;;;;;11.15;6.03;;;13.50;99.90;;;;;;5077794;28;20466;-60
2021/06/30 02:07:51;;;;;;;16.70;6.10;;;13.60;99.90;;;;;;5079623;28;20028;-61
2021/06/30 02:10:18;;;;;;;13.02;6.03;;;13.60;99.90;;;;;;5076536;28;20032;-61
2021/06/30 02:12:46;;;;;;;10.57;5.85;;;13.60;99.90;;;;;;5073190;28;20107;-61
2021/06/30 02:15:20;;;;;;;13.88;6.55;;;13.60;99.90;;;;;;5070784;28;20037;-62
2021/06/30 02:17:47;;;;;;;10.85;6.07;;;13.60;99.90;;;;;;5071193;28;20036;-61
2021/06/30 02:20:14;;;;;;;10.73;5.97;;;13.70;99.90;;;;;;5071253;28;20067;-62
2021/06/30 02:22:40;;;;;;;14.65;7.07;;;13.70;99.90;;;;;;5073338;28;20024;-61
2021/06/30 02:25:12;;;;;;;19.02;7.15;;;13.60;99.90;;;;;;5069794;28;20029;-61
2021/06/30 02:27:39;;;;;;;14.48;6.55;;;13.60;99.90;;;;;;5078659;28;20033;-60
2021/06/30 02:30:09;;;;;;;16.83;7.47;;;13.70;99.90;;;;;;5071076;28;20032;-62
2021/06/30 02:32:35;;;;;;;18.08;7.75;;;13.70;99.90;;;;;;5070387;28;20036;-61
2021/06/30 02:35:03;;;;;;;13.23;7.22;;;13.60;99.90;;;;;;5070701;28;20109;-62
2021/06/30 02:37:29;;;;;;;11.95;7.30;;;13.70;99.90;;;;;;5075093;28;20059;-61
2021/06/30 02:39:54;;;;;;;15.98;7.18;;;13.70;99.90;;;;;;5072325;28;20090;-62
2021/06/30 02:42:20;;;;;;;15.82;7.50;;;13.70;99.90;;;;;;5079387;28;20090;-60
2021/06/30 02:44:46;;;;;;;13.77;8.02;;;13.60;99.90;;;;;;5074373;28;20033;-59
2021/06/30 02:47:11;;;;;;;14.63;8.15;;;13.60;99.90;;;;;;5068932;28;20029;-61
2021/06/30 02:49:37;;;;;;;16.15;8.27;;;13.60;99.90;;;;;;5070482;28;20086;-62
2021/06/30 02:52:03;;;;;;;13.48;7.88;;;13.70;99.90;;;;;;5072358;28;20524;-61
2021/06/30 02:54:29;;;;;;;12.70;8.02;;;13.60;99.90;;;;;;5076359;28;20028;-61
2021/06/30 02:56:55;;;;;;;16.65;7.65;;;13.70;99.90;;;;;;5073562;28;20034;-60
2021/06/30 02:59:20;;;;;;;16.77;8.80;;;13.60;99.90;;;;;;5080245;28;20138;-62
2021/06/30 03:01:46;;;;;;;11.38;8.00;;;13.60;99.90;;;;;;5075096;28;20103;-61
2021/06/30 03:04:12;;;;;;;16.35;8.23;;;13.60;99.90;;;;;;5076392;28;20107;-61
2021/06/30 03:06:37;;;;;;;13.35;8.35;;;13.60;99.90;;;;;;5077562;28;20516;-61
2021/06/30 03:09:03;;;;;;;14.90;7.80;;;13.60;99.90;;;;;;5080080;28;20102;-60
2021/06/30 03:11:29;;;;;;;14.32;7.90;;;13.60;99.90;;;;;;5080587;28;20055;-61
2021/06/30 03:13:54;;;;;;;9.60;6.75;;;13.60;99.90;;;;;;5074678;28;20761;-61
2021/06/30 03:16:20;;;;;;;13.70;7.20;;;13.60;99.90;;;;;;5078289;28;20028;-61
2021/06/30 03:18:46;;;;;;;11.52;6.13;;;13.60;99.90;;;;;;5073804;28;20040;-62
2021/06/30 03:21:11;;;;;;;9.25;6.43;;;13.60;99.90;;;;;;5073085;28;20058;-62
2021/06/30 03:23:37;;;;;;;9.88;6.07;;;13.60;99.90;;;;;;5074086;28;20522;-62
2021/06/30 03:26:03;;;;;;;10.60;6.15;;;13.50;99.90;;;;;;5074263;28;20478;-61
2021/06/30 03:28:28;;;;;;;14.75;6.53;;;13.50;99.90;;;;;;5073988;28;20124;-61
2021/06/30 03:30:54;;;;;;;9.90;5.95;;;13.50;99.90;;;;;;5079406;28;20118;-61
2021/06/30 03:33:20;;;;;;;16.58;6.40;;;13.50;99.90;;;;;;5073370;28;20029;-62
2021/06/30 03:35:45;;;;;;;10.93;5.97;;;13.50;99.90;;;;;;5072794;28;20040;-60
2021/06/30 03:38:11;;;;;;;16.45;6.68;;;13.40;99.90;;;;;;5085767;28;20024;-61
2021/06/30 03:40:37;;;;;;;10.57;6.65;;;13.50;99.90;;;;;;5071923;28;20471;-61
2021/06/30 03:43:03;;;;;;;12.57;7.03;;;13.60;99.90;;;;;;5086079;28;20100;-60
2021/06/30 03:45:28;;;;;;;13.10;7.53;;;13.60;99.90;;;;;;5073336;28;20035;-61
2021/06/30 03:47:54;;;;;;;12.85;7.93;;;13.60;99.90;;;;;;5073136;28;20076;-62
2021/06/30 03:50:20;;;;;;;12.50;8.88;;;13.60;99.90;;;;;;5073148;28;20040;-61
2021/06/30 03:52:45;;;;;;;13.48;8.73;;;13.60;99.90;;;;;;5077632;28;20107;-63
2021/06/30 03:55:11;;;;;;;16.02;8.77;;;13.60;99.90;;;;;;5083133;28;20036;-62
2021/06/30 03:57:37;;;;;;;11.27;8.73;;;13.60;99.90;;;;;;5071250;28;21221;-60
2021/06/30 04:00:05;;;;;;;16.15;9.80;;;13.60;99.90;;;;;;5072670;28;20044;-61
2021/06/30 04:02:31;;;;;;;23.05;10.32;;;13.50;99.90;;;;;;5075582;28;20020;-61
2021/06/30 04:04:57;;;;;;;14.25;10.15;;;13.50;99.90;;;;;;5072705;28;20038;-61
2021/06/30 04:07:22;;;;;;;15.57;10.55;;;13.50;99.90;;;;;;5075215;28;20037;-61
2021/06/30 04:09:48;;;;;;;16.77;11.05;;;13.50;99.90;;;;;;5073082;28;20032;-60
2021/06/30 04:12:14;;;;;;;19.48;11.57;;;13.60;99.90;;;;;;5081539;28;20032;-60
2021/06/30 04:14:39;;;;;;;19.20;11.85;;;13.50;99.90;;;;;;5091942;28;20028;-60
2021/06/30 04:17:05;;;;;;;16.35;11.35;;;13.50;99.90;;;;;;5073579;28;20107;-62
2021/06/30 04:19:31;;;;;;;14.38;11.50;;;13.50;99.90;;;;;;5078096;28;20032;-61
2021/06/30 04:21:56;;;;;;;16.55;12.35;;;13.50;99.90;;;;;;5071754;28;20023;-62
2021/06/30 04:24:22;;;;;;;16.45;12.52;;;13.50;99.90;;;;;;5075239;28;20544;-60
2021/06/30 04:26:48;;;;;;;19.27;12.88;;;13.50;99.90;;;;;;5081286;28;20067;-62
2021/06/30 04:29:14;;;;;;;17.42;12.30;;;13.50;99.90;;;;;;5072853;28;20533;-62
2021/06/30 04:31:39;;;;;;;11.13;8.02;;;13.50;99.90;;;;;;5071387;28;20032;-60
2021/06/30 04:34:05;;;;;;;9.73;7.55;;;13.50;99.90;;;;;;5079613;28;20046;-61
2021/06/30 04:36:31;;;;;;;13.48;7.10;;;13.40;99.90;;;;;;5075589;28;20035;-60
2021/06/30 04:38:57;;;;;;;12.40;7.20;;;13.30;99.90;;;;;;5080959;28;20038;-60
2021/06/30 04:41:22;;;;;;;12.05;6.28;;;13.40;99.90;;;;;;5080899;28;20433;-60
2021/06/30 04:43:48;;;;;;;12.57;6.47;;;13.30;99.90;;;;;;5072700;28;20359;-63
2021/06/30 04:46:14;;;;;;;10.00;6.35;;;13.30;99.90;;;;;;5084902;28;20036;-62
2021/06/30 04:48:39;;;;;;;11.07;6.55;;;13.30;99.90;;;;;;5075805;28;20170;-60
2021/06/30 04:51:06;;;;;;;13.75;6.75;;;13.30;99.90;;;;;;5077462;28;20023;-61
2021/06/30 04:53:32;;;;;;;12.23;6.45;;;13.30;99.90;;;;;;5082710;28;20024;-61
2021/06/30 04:55:59;;;;;;;14.23;6.18;;;13.30;99.90;;;;;;5090960;28;20024;-61
2021/06/30 04:58:25;;;;;;;9.20;6.28;;;13.30;99.90;;;;;;5080953;28;20051;-60
2021/06/30 05:00:55;;;;;;;11.35;6.75;;;13.30;99.90;;;;;;5080173;28;20057;-62
2021/06/30 05:03:27;;;;;;;9.45;6.55;;;13.30;99.90;;;;;;5079923;28;20036;-59
2021/06/30 05:05:54;;;;;;;12.20;6.45;;;13.30;99.90;;;;;;5071445;28;20108;-61
2021/06/30 05:08:23;;;;;;;13.23;6.45;;;13.30;99.90;;;;;;5072720;28;20036;-60
2021/06/30 05:10:50;;;;;;;11.43;6.93;;;13.30;99.90;;;;;;5072054;28;20450;-62
2021/06/30 05:13:16;;;;;;;13.20;6.60;;;13.30;99.90;;;;;;5071908;28;20038;-61
2021/06/30 05:15:43;;;;;;;12.25;5.88;;;13.30;99.90;;;;;;5077650;28;20108;-59
2021/06/30 05:18:09;;;;;;;15.88;6.80;;;13.30;99.90;;;;;;5070538;28;20600;-61
2021/06/30 05:20:34;;;;;;;11.23;6.40;;;13.30;99.90;;;;;;5083205;28;20060;-62
2021/06/30 05:23:00;;;;;;;10.55;6.30;;;13.40;99.90;;;;;;5076189;28;20251;-60
2021/06/30 05:25:26;;;;;;;12.27;6.47;;;13.40;99.90;;;;;;5075421;28;20451;-60
2021/06/30 05:27:52;;;;;;;11.48;6.97;;;13.40;99.90;;;;;;5070870;28;20036;-60
2021/06/30 05:30:18;;;;;;;15.90;7.50;;;13.40;99.90;;;;;;5072402;28;20032;-60
2021/06/30 05:32:44;;;;;;;10.00;7.10;;;13.40;99.90;;;;;;5079222;28;20083;-61
2021/06/30 05:35:10;;;;;;;13.73;7.57;;;13.40;99.90;;;;;;5080536;28;20024;-61
2021/06/30 05:37:35;;;;;;;10.80;7.05;;;13.40;99.90;;;;;;5075243;28;20080;-62
2021/06/30 05:40:02;;;;;;;12.85;7.38;;;13.40;99.90;;;;;;5075542;28;20036;-61
2021/06/30 05:42:28;;;;;;;13.02;8.32;;;13.50;99.90;;;;;;5077605;28;20028;-61
2021/06/30 05:44:54;;;;;;;15.90;7.93;;;13.50;99.90;;;;;;5075686;28;20474;-62
2021/06/30 05:47:20;;;;;;;12.45;7.75;;;13.40;99.90;;;;;;5075544;28;20027;-61
2021/06/30 05:49:46;;;;;;;16.10;8.65;;;13.40;99.90;;;;;;5071091;28;20367;-61
2021/06/30 05:52:11;;;;;;;12.93;8.07;;;13.40;99.90;;;;;;5080875;28;20060;-60
2021/06/30 05:54:37;;;;;;;15.05;8.80;;;13.40;99.90;;;;;;5076453;28;20386;-61
2021/06/30 05:57:03;;;;;;;15.45;8.48;;;13.40;99.90;;;;;;5075908;28;20025;-60
2021/06/30 05:59:28;;;;;;;14.77;8.93;;;13.50;99.90;;;;;;5073238;28;20032;-61
2021/06/30 06:01:54;;;;;;;15.32;9.07;;;13.40;99.90;;;;;;5069686;28;20112;-61
2021/06/30 06:04:20;;;;;;;15.15;8.98;;;13.30;99.90;;;;;;5078110;28;20099;-63
2021/06/30 06:06:46;;;;;;;14.68;9.40;;;13.30;99.90;;;;;;5074242;28;20090;-61
2021/06/30 06:09:12;;;;;;;13.18;10.02;;;13.40;99.90;;;;;;5071635;28;20032;-61
2021/06/30 06:11:37;;;;;;;14.65;9.75;;;13.40;99.90;;;;;;5072660;28;20035;-62
2021/06/30 06:14:03;;;;;;;17.00;9.73;;;13.40;99.90;;;;;;5071327;28;20032;-62
2021/06/30 06:16:29;;;;;;;16.48;10.93;;;13.30;99.90;;;;;;5071130;28;20048;-60
2021/06/30 06:18:54;;;;;;;22.90;10.82;;;13.30;99.90;;;;;;5076146;28;20111;-60
2021/06/30 06:21:20;;;;;;;20.63;10.80;;;13.30;99.90;;;;;;5073258;28;20616;-61
2021/06/30 06:23:46;;;;;;;18.40;10.90;;;13.30;99.90;;;;;;5069851;28;20029;-62
2021/06/30 06:26:12;;;;;;;15.15;9.98;;;13.30;99.90;;;;;;5072814;28;20027;-61
2021/06/30 06:28:38;;;;;;;16.42;11.45;;;13.40;99.90;;;;;;5075215;28;20059;-62
2021/06/30 06:31:05;;;;;;;15.68;10.13;;;13.40;99.90;;;;;;5077007;28;20049;-61
2021/06/30 06:33:31;;;;;;;15.82;10.07;;;13.40;99.90;;;;;;5077293;28;20037;-63
2021/06/30 06:35:58;;;;;;;15.60;10.23;;;13.50;99.90;;;;;;5074095;28;20536;-63
2021/06/30 06:38:24;;;;;;;14.75;10.77;;;13.50;99.90;;;;;;5076683;28;20074;-62
2021/06/30 06:40:51;;;;;;;18.40;10.73;;;13.50;99.90;;;;;;5075473;28;20025;-61
2021/06/30 06:43:16;;;;;;;16.05;10.00;;;13.50;99.90;;;;;;5073481;28;20551;-62
2021/06/30 06:45:43;;;;;;;13.45;9.20;;;13.50;99.90;;;;;;5075444;28;20025;-61
2021/06/30 06:48:08;;;;;;;13.15;8.73;;;13.50;99.90;;;;;;5078572;28;20085;-61
2021/06/30 06:50:35;;;;;;;17.85;10.05;;;13.40;99.90;;;;;;5077325;28;20044;-62
2021/06/30 06:53:01;;;;;;;18.98;10.13;;;13.50;99.90;;;;;;5073437;28;20039;-62
2021/06/30 06:55:27;;;;;;;16.55;9.88;;;13.40;99.90;;;;;;5073803;28;20032;-62
2021/06/30 06:57:53;;;;;;;17.05;10.50;;;13.50;99.90;;;;;;5076906;28;20040;-62
2021/06/30 07:00:19;;;;;;;14.73;9.35;;;13.40;99.90;;;;;;5079352;28;20028;-63
2021/06/30 07:02:45;;;;;;;14.98;9.10;;;13.40;99.90;;;;;;5079989;28;20543;-61
2021/06/30 07:05:11;;;;;;;14.95;9.45;;;13.40;99.90;;;;;;5077555;28;20064;-63
2021/06/30 07:07:44;;;;;;;16.17;10.07;;;13.40;99.90;;;;;;5081935;28;20438;-63
2021/06/30 07:10:11;;;;;;;15.20;9.00;;;13.40;99.90;;;;;;5082364;28;20058;-62
2021/06/30 07:12:37;;;;;;;11.73;9.10;;;13.40;99.90;;;;;;5087030;28;20498;-62
2021/06/30 07:15:05;;;;;;;16.50;9.95;;;13.30;99.90;;;;;;5076801;28;20107;-62
2021/06/30 07:17:30;;;;;;;17.55;10.40;;;13.30;99.90;;;;;;5077480;28;20029;-63
2021/06/30 07:19:56;;;;;;;17.73;10.90;;;13.40;99.90;;;;;;5074930;28;20103;-63
2021/06/30 07:22:22;;;;;;;16.30;9.20;;;13.50;99.90;;;;;;5079382;28;20070;-62
2021/06/30 07:24:48;;;;;;;16.75;10.23;;;13.60;99.90;;;;;;5077688;28;20028;-61
2021/06/30 07:27:13;;;;;;;15.57;10.57;;;13.50;99.90;;;;;;5072681;28;20041;-64
2021/06/30 07:29:39;;;;;;;16.73;10.55;;;13.50;99.90;;;;;;5073177;28;20062;-62
2021/06/30 07:32:05;;;;;;;13.63;9.50;;;13.50;99.90;;;;;;5075105;28;20029;-62
2021/06/30 07:34:31;;;;;;;14.95;10.32;;;13.50;99.90;;;;;;5082156;28;20036;-61
2021/06/30 07:36:58;;;;;;;17.30;10.88;;;13.50;99.90;;;;;;5075755;28;20027;-62
2021/06/30 07:39:24;;;;;;;16.30;9.85;;;13.60;99.90;;;;;;5073772;28;20085;-62
2021/06/30 07:41:52;;;;;;;14.43;9.90;;;13.70;99.90;;;;;;5086575;28;20043;-62
2021/06/30 07:44:18;;;;;;;12.18;9.15;;;13.70;99.90;;;;;;5086660;28;20094;-63
2021/06/30 07:46:44;;;;;;;18.58;9.18;;;13.70;99.90;;;;;;5075508;28;20478;-62
2021/06/30 07:49:09;;;;;;;12.52;7.28;;;13.70;99.90;;;;;;5071497;28;20047;-61
2021/06/30 07:51:35;;;;;;;12.95;6.40;;;13.70;99.90;;;;;;5073095;28;20040;-62
2021/06/30 07:54:01;;;;;;;7.97;5.50;;;13.60;99.90;;;;;;5083105;28;20021;-61
2021/06/30 07:56:33;;;;;;;7.07;4.63;;;13.60;99.90;;;;;;5072487;28;20064;-62
2021/06/30 07:59:04;;;;;;;10.63;4.28;;;13.60;99.90;;;;;;5082119;28;20039;-62
2021/06/30 08:01:30;;;;;;;9.73;5.10;;;13.60;99.90;;;;;;5080202;28;20389;-62
2021/06/30 08:03:56;;;;;;;10.82;6.40;;;13.70;99.90;;;;;;5074462;28;20021;-61
2021/06/30 08:06:22;;;;;;;8.80;4.95;;;13.80;99.90;;;;;;5073033;28;20024;-61
2021/06/30 08:08:47;;;;;;;7.90;5.05;;;13.80;99.90;;;;;;5081618;28;20035;-61
2021/06/30 08:11:13;;;;;;;7.93;5.95;;;13.80;99.90;;;;;;5077626;28;20047;-62
2021/06/30 08:13:39;;;;;;;9.68;6.20;;;13.80;99.90;;;;;;5077746;28;20039;-60
2021/06/30 08:16:05;;;;;;;13.10;6.28;;;13.80;99.90;;;;;;5089151;28;20043;-60
2021/06/30 08:18:30;;;;;;;11.25;6.20;;;13.80;99.90;;;;;;5075239;28;20029;-60
2021/06/30 08:20:56;;;;;;;10.95;6.18;;;13.90;99.90;;;;;;5087383;28;20028;-60
2021/06/30 08:23:21;;;;;;;16.48;7.07;;;13.80;99.90;;;;;;5076352;28;20028;-62
2021/06/30 08:25:49;;;;;;;10.55;7.18;;;13.80;99.90;;;;;;5080099;28;20029;-61
2021/06/30 08:28:19;;;;;;;10.60;6.32;;;13.90;99.90;;;;;;5077473;28;20051;-61
2021/06/30 08:30:44;;;;;;;8.32;5.40;;;13.90;99.90;;;;;;5082280;28;20469;-60
2021/06/30 08:33:11;;;;;;;14.30;5.95;;;13.90;99.90;;;;;;5077226;28;20110;-60
2021/06/30 08:35:37;;;;;;;9.93;5.45;;;14.00;99.90;;;;;;5076967;28;20029;-62
2021/06/30 08:38:03;;;;;;;5.63;3.95;;;14.10;99.90;;;;;;5071987;28;20028;-62
2021/06/30 08:40:29;;;;;;;7.28;4.18;;;14.10;99.90;;;;;;5073329;28;20163;-62
2021/06/30 08:42:54;;;;;;;6.88;3.80;;;14.20;99.90;;;;;;5071472;28;20098;-61
2021/06/30 08:45:20;;;;;;;7.07;3.70;;;14.20;99.90;;;;;;5080316;28;20038;-61
2021/06/30 08:47:48;;;;;;;5.50;3.10;;;14.30;99.90;;;;;;5077818;28;20016;-62
2021/06/30 08:50:14;;;;;;;4.35;2.90;;;14.30;99.90;;;;;;5073143;28;20040;-61
2021/06/30 08:52:40;;;;;;;3.38;2.72;;;14.30;99.90;;;;;;5073310;28;20040;-62
2021/06/30 08:55:08;;;;;;;3.90;2.70;;;14.30;99.90;;;;;;5073229;28;20039;-62
2021/06/30 08:57:36;;;;;;;4.63;3.00;;;14.30;99.90;;;;;;5077990;28;20032;-62
2021/06/30 09:00:02;;;;;;;5.47;2.78;;;14.40;99.90;;;;;;5076517;28;20111;-60
2021/06/30 09:02:28;;;;;;;4.15;2.83;;;14.40;99.90;;;;;;5073170;28;20108;-60
2021/06/30 09:07:59;;;;;;;3.72;3.30;;;14.40;99.90;;;;;;5018419;28;20043;-61
2021/06/30 09:10:32;;;;;;;8.07;2.88;;;14.50;99.90;;;;;;5026287;28;20041;-61
2021/06/30 09:13:00;;;;;;;3.95;2.60;;;14.50;99.90;;;;;;5050030;28;20055;-62
2021/06/30 09:15:31;;;;;;;4.57;3.08;;;14.50;99.90;;;;;;5075966;28;20025;-61
2021/06/30 09:18:29;;;;;;;4.78;2.92;;;14.70;99.90;;;;;;5089057;28;20035;-60
2021/06/30 09:21:28;;;;;;;5.22;3.20;;;14.90;99.90;;;;;;5074745;28;20123;-61
2021/06/30 09:24:00;;;;;;;3.17;2.30;;;14.90;99.90;;;;;;5087667;28;20036;-61
2021/06/30 09:26:28;;;;;;;4.47;3.05;;;14.80;99.90;;;;;;5084163;28;20028;-60
2021/06/30 09:29:05;;;;;;;6.00;2.60;;;14.90;99.90;;;;;;5079731;28;20497;-60
2021/06/30 09:31:33;;;;;;;4.00;2.67;;;14.80;99.90;;;;;;5071592;28;20071;-60
2021/06/30 09:33:59;;;;;;;4.88;2.47;;;14.90;99.90;;;;;;5070385;28;20055;-60
2021/06/30 09:36:30;;;;;;;3.38;2.10;;;14.90;99.90;;;;;;5071476;28;20074;-59
2021/06/30 09:39:06;;;;;;;3.80;2.28;;;15.00;99.90;;;;;;5078522;28;20043;-60
2021/06/30 09:41:34;;;;;;;5.00;2.60;;;15.10;99.90;;;;;;5070699;28;20028;-61
2021/06/30 09:44:13;;;;;;;4.30;2.58;;;14.90;99.90;;;;;;5069712;28;20033;-60
2021/06/30 09:46:41;;;;;;;3.80;2.42;;;14.80;99.90;;;;;;5074130;28;20098;-61
2021/06/30 09:49:11;;;;;;;4.30;2.25;;;14.70;99.90;;;;;;5073878;28;20036;-61
2021/06/30 09:51:38;;;;;;;5.05;2.10;;;14.60;99.90;;;;;;5080658;28;20032;-61
2021/06/30 09:54:10;;;;;;;3.42;1.80;;;14.50;99.90;;;;;;5070641;28;20040;-61
2021/06/30 09:56:38;;;;;;;4.85;1.73;;;14.50;99.90;;;;;;5071065;28;20478;-60
2021/06/30 09:59:09;;;;;;;2.50;1.73;;;14.50;99.90;;;;;;5075932;28;20032;-60
2021/06/30 10:01:36;;;;;;;3.28;1.70;;;14.60;99.90;;;;;;5085935;28;20058;-62
2021/06/30 10:04:02;;;;;;;2.70;1.60;;;14.70;99.90;;;;;;5074918;28;20063;-61
2021/06/30 10:06:30;;;;;;;3.10;1.70;;;14.80;99.90;;;;;;5071423;28;20024;-61
2021/06/30 10:08:58;;;;;;;2.95;2.58;;;15.00;99.90;;;;;;5069711;28;20024;-62
2021/06/30 10:11:28;;;;;;;5.38;1.90;;;15.30;99.90;;;;;;5082610;28;20474;-60
2021/06/30 10:13:55;;;;;;;3.95;2.50;;;15.50;99.90;;;;;;5076596;28;20025;-61
2021/06/30 10:16:22;;;;;;;3.88;1.88;;;15.70;99.90;;;;;;5076564;28;20024;-60
2021/06/30 10:18:50;;;;;;;6.50;2.17;;;15.80;99.90;;;;;;5074567;28;20032;-61
2021/06/30 10:21:18;;;;;;;5.80;2.50;;;15.60;99.90;;;;;;5070955;28;20039;-60
2021/06/30 10:23:44;;;;;;;4.80;2.90;;;15.60;99.90;;;;;;5074822;28;20032;-61
2021/06/30 10:26:12;;;;;;;3.65;2.55;;;15.50;99.90;;;;;;5079833;28;20028;-62
2021/06/30 10:28:38;;;;;;;3.30;2.50;;;15.50;99.90;;;;;;5076045;28;20056;-61
2021/06/30 10:31:04;;;;;;;4.07;2.53;;;15.40;99.90;;;;;;5070500;28;20105;-62
2021/06/30 10:33:37;;;;;;;4.63;2.60;;;15.40;99.90;;;;;;5070196;28;20486;-62
2021/06/30 10:36:03;;;;;;;2.72;2.33;;;15.30;99.90;;;;;;5071206;28;20037;-60
2021/06/30 10:38:55;;;;;;;5.40;2.83;;;15.20;99.90;;;;;;5076642;28;20029;-60
2021/06/30 10:41:38;;;;;;;5.22;2.60;;;15.20;99.90;;;;;;5070574;28;20029;-61
2021/06/30 10:44:10;;;;;;;4.75;2.60;;;15.30;99.90;;;;;;5077929;28;20516;-60
2021/06/30 10:46:36;;;;;;;3.13;2.33;;;15.40;99.90;;;;;;5075407;28;20032;-61
2021/06/30 10:49:13;;;;;;;3.05;2.65;;;15.60;99.90;;;;;;5069482;28;20569;-62
2021/06/30 10:51:51;;;;;;;5.55;2.90;;;15.70;99.90;;;;;;5074280;28;20071;-61
2021/06/30 10:54:36;;;;;;;5.82;2.25;;;15.70;99.90;;;;;;5069598;28;20024;-61
2021/06/30 10:57:29;;;;;;;9.77;4.57;;;15.50;99.90;;;;;;5069178;28;20059;-62
2021/06/30 11:00:04;;;;;;;3.67;2.30;;;15.40;99.90;;;;;;5072545;28;20501;-61
2021/06/30 11:02:33;;;;;;;6.72;2.20;;;15.40;99.90;;;;;;5069913;28;20028;-61
2021/06/30 11:05:14;;;;;;;4.53;2.70;;;15.30;99.90;;;;;;5069385;28;20418;-61
2021/06/30 11:07:44;;;;;;;4.70;2.10;;;15.40;99.90;;;;;;5071201;28;20029;-61
2021/06/30 11:10:16;;;;;;;5.57;2.20;;;15.50;99.90;;;;;;5074121;28;20494;-61
2021/06/30 11:12:50;;;;;;;6.40;2.60;;;15.50;99.90;;;;;;5070370;28;20090;-62
2021/06/30 11:15:38;;;;;;;5.93;2.00;;;15.70;99.90;;;;;;5069851;28;20021;-61
2021/06/30 11:18:24;;;;;;;1.85;1.65;;;15.90;99.90;;;;;;5074803;28;20623;-60
2021/06/30 11:21:00;;;;;;;11.68;2.90;;;16.00;99.90;;;;;;5072737;28;20025;-61
2021/06/30 11:23:27;;;;;;;5.30;2.53;;;15.90;99.90;;;;;;5074014;28;20042;-61
2021/06/30 11:26:14;;;;;;;2.33;1.83;;;16.00;99.90;;;;;;5076631;28;20134;-60
2021/06/30 11:28:39;;;;;;;4.95;1.95;;;15.90;99.90;;;;;;5072178;28;20074;-62
2021/06/30 11:31:27;;;;;;;24.10;11.20;;;15.80;99.90;;;;;;5073999;28;20041;-61
2021/06/30 11:34:11;;;;;;;11.00;2.25;;;15.80;99.90;;;;;;5072895;28;20037;-61
2021/06/30 11:36:41;;;;;;;4.38;1.63;;;15.90;99.90;;;;;;5074057;28;20539;-61
2021/06/30 11:39:09;;;;;;;8.23;2.17;;;15.90;99.90;;;;;;5074006;28;20055;-60
2021/06/30 11:41:49;;;;;;;12.57;2.38;;;16.10;99.90;;;;;;5073088;28;20052;-62
2021/06/30 11:44:17;;;;;;;5.90;2.63;;;16.20;99.90;;;;;;5073350;28;20027;-60
2021/06/30 11:46:44;;;;;;;5.60;2.30;;;16.30;99.90;;;;;;5081793;28;20047;-61
2021/06/30 11:49:12;;;;;;;12.30;2.60;;;16.30;99.90;;;;;;5083370;28;20028;-61
2021/06/30 11:51:38;;;;;;;3.53;2.50;;;16.40;99.90;;;;;;5074416;28;20045;-60
2021/06/30 11:54:15;;;;;;;15.43;2.65;;;16.30;99.90;;;;;;5072552;28;20033;-61
2021/06/30 11:56:42;;;;;;;21.70;3.90;;;16.20;99.90;;;;;;5073638;28;20576;-61
2021/06/30 11:59:19;;;;;;;15.35;3.42;;;16.20;99.90;;;;;;5072029;28;20033;-61
2021/06/30 12:01:47;;;;;;;16.67;3.65;;;16.20;99.90;;;;;;5076439;28;20048;-60
2021/06/30 12:04:25;;;;;;;17.70;3.15;;;16.40;99.90;;;;;;5073133;28;20064;-61
2021/06/30 12:07:00;;;;;;;17.27;2.47;;;16.40;99.90;;;;;;5072796;28;20021;-61
2021/06/30 12:09:31;;;;;;;22.85;3.95;;;16.70;99.90;;;;;;5075106;28;20393;-60
2021/06/30 12:11:58;;;;;;;13.57;3.13;;;16.90;99.90;;;;;;5085992;28;20032;-61
2021/06/30 12:14:35;;;;;;;9.05;3.30;;;16.90;99.90;;;;;;5079736;28;20052;-61
2021/06/30 12:17:03;;;;;;;10.88;3.85;;;16.90;99.90;;;;;;5075216;28;20032;-61
2021/06/30 12:19:42;;;;;;;7.93;4.40;;;16.90;99.90;;;;;;5077155;28;20417;-61
2021/06/30 12:22:27;;;;;;;14.70;3.08;;;16.90;99.90;;;;;;5072825;28;20055;-61
2021/06/30 12:25:03;;;;;;;12.05;3.90;;;16.70;99.90;;;;;;5076317;28;20081;-60
2021/06/30 12:27:39;;;;;;;14.07;8.30;;;16.70;99.90;;;;;;5081850;28;20066;-61
2021/06/30 12:30:11;;;;;;;9.95;5.10;;;16.60;99.90;;;;;;5081586;28;20505;-61
2021/06/30 12:32:49;;;;;;;9.27;2.83;;;16.60;99.90;;;;;;5087322;28;20115;-62
2021/06/30 12:35:20;;;;;;;5.18;2.55;;;16.40;99.90;;;;;;5073825;28;20036;-61
2021/06/30 12:38:04;;;;;;;3.25;2.42;;;16.30;99.90;;;;;;5072139;28;20028;-62
2021/06/30 12:40:31;;;;;;;5.57;2.50;;;16.30;99.90;;;;;;5070043;28;20536;-61
2021/06/30 12:43:02;;;;;;;3.53;2.05;;;16.40;99.90;;;;;;5084022;28;20043;-61
2021/06/30 12:45:42;;;;;;;21.85;3.22;;;16.40;99.90;;;;;;5089338;28;20036;-60